Etusivu
METAR-TAF:

METAR-TAF

Lentoasemat :

Biloxi, Mississippi, Yhdysvallat

Leveyspiiri: 30-25N, Pituuspiiri: 088-55W, korkeus merenpinnasta: 10 m

Tämänhetkinen sää

Tämä raportti tehtiin 59 minuuttia sitten, kello 07.56 UTC
Tuuli 7 kn pohjoisesta
Lämpötila 4°C
Kosteus 87%
Ilmanpaine 1028 hPa
Näkyvyys: 16.1 km
selkeää

METAR: KBIX 110756Z AUTO 36007KT 10SM CLR 04/02 A3035 RMK AO2 SLP281 T00440016

Aika: 02:55 (08:55 UTC)

Sääennuste

Tämä raportti tehtiin 6 tuntia ja 55 minuuttia sitten, kello 02.00 UTC
Ennuste voimassa 11. päivästä klo 02 UTC - 12. päivään klo 08 UTC
Tuuli 9 kn pohjoisen/luoteesta
Näkyvyys 10 km tai enemmän
Muutamia pilviä 3000 ft:n korkeudessa
Tulossa
11. päivästä klo 12 UTC - 11. päivään klo 13 UTC
Tuuli 6 kn eri suunnista
Näkyvyys 10 km tai enemmän
selkeää

TAF: KBIX 110200Z 1102/1208 33009KT 9999 FEW030 QNH3022INS BECMG 1112/1113 VRB06KT 9999 SKC QNH3020INS TX13/1120Z TN03/1112Z

Säähavainnot ja -ennusteet yli 4000 lentoasemalta (METAR- ja TAF-raportit).

Käytössä olevat sääasemat on merkitty karttaan keltaisilla ja punaisilla pisteillä.

Aseta hiiri pisteen päälle nähdäksesi sääaseman nimen.

Klikkaa sitten nähdäksesi säähavainnot ja -ennusteet.

Kartan vaihtaminen: klikkaa mustalla rastilla varustettuja vihreitä pisteitä, niin voit zoomata sisään; viivalla varustettua vihreää pistettä, niin voit zoomata ulos tai vihreitä nuolia, niin pääset viereisille kartoille.


METAR-TAF: